createdAt,value
2022-10-04T00:01:09.782Z,14.20
2022-10-04T00:03:45.249Z,17.00
2022-10-04T00:06:26.343Z,17.30
2022-10-04T00:09:25.318Z,16.50
2022-10-04T00:11:56.050Z,16.60
2022-10-04T00:14:32.458Z,22.60
2022-10-04T00:17:11.046Z,21.30
2022-10-04T00:19:48.251Z,18.60
2022-10-04T00:22:24.782Z,10.80
2022-10-04T00:25:18.303Z,17.40
2022-10-04T00:28:21.116Z,15.40
2022-10-04T00:31:26.582Z,13.00
2022-10-04T00:34:03.775Z,14.70
2022-10-04T00:36:32.473Z,21.80
2022-10-04T00:39:06.878Z,13.10
2022-10-04T00:41:47.352Z,19.70
2022-10-04T00:44:42.966Z,13.90
2022-10-04T00:47:31.965Z,18.80
2022-10-04T00:50:29.023Z,16.80
2022-10-04T00:55:51.277Z,14.90
2022-10-04T00:58:26.714Z,19.70
2022-10-04T01:00:57.802Z,17.70
2022-10-04T01:03:41.478Z,19.40
2022-10-04T01:06:13.752Z,17.30
2022-10-04T01:08:49.708Z,17.60
2022-10-04T01:12:05.882Z,20.30
2022-10-04T01:14:53.264Z,19.10
2022-10-04T01:17:22.625Z,15.60
2022-10-04T01:19:53.421Z,16.90
2022-10-04T01:22:43.260Z,20.60
2022-10-04T01:25:45.173Z,20.20
2022-10-04T01:28:14.388Z,21.60
2022-10-04T01:30:44.295Z,23.50
2022-10-04T01:33:13.578Z,16.20
2022-10-04T01:35:41.863Z,25.20
2022-10-04T01:38:11.501Z,19.60
2022-10-04T01:40:57.395Z,21.90
2022-10-04T01:43:32.361Z,20.50
2022-10-04T01:48:38.292Z,15.60
2022-10-04T01:51:16.695Z,22.70
2022-10-04T01:53:56.176Z,18.80
2022-10-04T01:56:30.053Z,11.20
2022-10-04T01:59:06.197Z,16.30
2022-10-04T02:01:39.036Z,14.10
2022-10-04T02:04:22.784Z,18.30
2022-10-04T02:06:55.184Z,18.50
2022-10-04T02:09:31.994Z,13.70
2022-10-04T02:12:01.703Z,15.60
2022-10-04T02:14:34.898Z,14.80
2022-10-04T02:17:10.595Z,12.80
2022-10-04T02:19:42.585Z,16.80
2022-10-04T02:22:11.750Z,13.40
2022-10-04T02:24:45.202Z,17.50
2022-10-04T02:27:15.105Z,20.80
2022-10-04T02:29:43.382Z,14.90
2022-10-04T02:32:33.327Z,12.20
2022-10-04T02:35:04.282Z,14.20
2022-10-04T02:37:32.747Z,18.80
2022-10-04T02:40:14.231Z,18.30
2022-10-04T02:43:00.637Z,16.40
2022-10-04T02:45:38.410Z,14.40
2022-10-04T02:48:31.487Z,16.90
2022-10-04T02:51:16.909Z,17.00
2022-10-04T02:54:21.425Z,14.70
2022-10-04T02:56:54.535Z,15.20
2022-10-04T02:59:22.941Z,17.40
2022-10-04T03:01:55.460Z,11.80
2022-10-04T03:04:28.033Z,11.30
2022-10-04T03:06:59.382Z,16.80
2022-10-04T03:09:30.033Z,17.20
2022-10-04T03:11:59.562Z,17.50
2022-10-04T03:14:29.501Z,13.60
2022-10-04T03:17:04.264Z,19.50
2022-10-04T03:19:35.121Z,25.70
2022-10-04T03:22:08.788Z,18.70
2022-10-04T03:24:43.889Z,16.20
2022-10-04T03:27:22.674Z,16.00
2022-10-04T03:29:53.570Z,18.80
2022-10-04T03:32:26.387Z,11.70
2022-10-04T03:35:04.092Z,12.00
2022-10-04T03:37:37.259Z,16.60
2022-10-04T03:40:09.822Z,13.10
2022-10-04T03:42:39.862Z,15.30
2022-10-04T03:45:15.886Z,15.20
2022-10-04T03:47:48.780Z,18.50
2022-10-04T03:50:19.537Z,11.80
2022-10-04T03:52:54.102Z,17.80
2022-10-04T03:55:31.636Z,13.50
2022-10-04T03:58:01.665Z,17.00
2022-10-04T04:00:30.447Z,15.70
2022-10-04T04:03:03.974Z,15.40
2022-10-04T04:05:40.607Z,12.40
2022-10-04T04:08:14.913Z,15.30
2022-10-04T04:10:47.898Z,12.30
2022-10-04T04:13:46.511Z,17.50
2022-10-04T04:16:15.483Z,12.80
2022-10-04T04:18:46.461Z,17.80
2022-10-04T04:21:19.382Z,14.60
2022-10-04T04:23:54.071Z,17.20
2022-10-04T04:26:37.531Z,10.50
2022-10-04T04:29:25.254Z,20.30
2022-10-04T04:32:00.203Z,17.50
2022-10-04T04:37:01.974Z,16.60
2022-10-04T04:39:40.214Z,15.70
2022-10-04T04:42:21.468Z,15.10
2022-10-04T04:45:26.028Z,18.80
2022-10-04T04:47:57.558Z,13.60
2022-10-04T04:50:38.068Z,14.80
2022-10-04T04:53:16.666Z,14.60
2022-10-04T04:56:03.504Z,16.70
2022-10-04T04:58:37.191Z,19.80
2022-10-04T05:01:26.971Z,16.00
2022-10-04T05:04:12.758Z,13.50
2022-10-04T05:06:47.559Z,14.80
2022-10-04T05:09:31.328Z,14.20
2022-10-04T05:12:08.785Z,15.40
2022-10-04T05:14:47.747Z,14.20
2022-10-04T05:17:35.573Z,14.60
2022-10-04T05:20:05.610Z,12.50
2022-10-04T05:22:36.433Z,18.90
2022-10-04T05:25:15.744Z,16.60
2022-10-04T05:27:45.350Z,12.10
2022-10-04T05:30:32.180Z,15.10
2022-10-04T05:33:07.741Z,15.00
2022-10-04T05:36:02.118Z,13.80
2022-10-04T05:39:03.128Z,12.40
2022-10-04T05:42:01.719Z,10.50
2022-10-04T05:44:38.641Z,16.80
2022-10-04T05:47:14.606Z,11.70
2022-10-04T05:49:46.815Z,13.40
2022-10-04T05:52:36.296Z,12.70
2022-10-04T05:55:22.858Z,13.70
2022-10-04T05:58:28.034Z,17.60
2022-10-04T06:01:11.200Z,14.40
2022-10-04T06:03:58.973Z,13.40
2022-10-04T06:06:51.710Z,17.70
2022-10-04T06:09:53.548Z,16.70
2022-10-04T06:12:58.515Z,16.50
2022-10-04T06:16:20.664Z,14.70
2022-10-04T06:19:15.166Z,17.00
2022-10-04T06:21:52.451Z,15.20
2022-10-04T06:24:29.919Z,15.50
2022-10-04T06:27:07.386Z,17.20
2022-10-04T06:29:41.478Z,13.90
2022-10-04T06:32:47.001Z,15.80
2022-10-04T06:35:21.280Z,14.50
2022-10-04T06:38:08.897Z,12.40
2022-10-04T06:40:58.923Z,15.90
2022-10-04T06:43:35.047Z,16.20
2022-10-04T06:46:05.932Z,16.10
2022-10-04T06:48:43.456Z,15.00
2022-10-04T06:51:16.525Z,13.60
2022-10-04T06:54:32.522Z,17.70
2022-10-04T06:57:45.561Z,14.70
2022-10-04T07:00:30.062Z,15.90
2022-10-04T07:03:24.709Z,20.30
2022-10-04T07:06:01.455Z,14.50
2022-10-04T07:09:08.385Z,20.30
2022-10-04T07:11:56.479Z,17.20
2022-10-04T07:14:43.718Z,14.40
2022-10-04T07:17:19.750Z,18.30
2022-10-04T07:19:50.105Z,11.10
2022-10-04T07:22:43.460Z,20.00
2022-10-04T07:25:45.837Z,13.80
2022-10-04T07:28:39.202Z,17.00
2022-10-04T07:31:35.628Z,18.50
2022-10-04T07:34:15.957Z,18.30
2022-10-04T07:36:49.525Z,16.00
2022-10-04T07:39:32.189Z,13.90
2022-10-04T07:42:19.627Z,15.50
2022-10-04T07:45:00.409Z,18.20
2022-10-04T07:47:30.289Z,17.60
2022-10-04T07:49:58.673Z,18.40
2022-10-04T07:52:49.179Z,15.20
2022-10-04T07:55:28.908Z,14.90
2022-10-04T07:58:10.807Z,17.10
2022-10-04T08:01:01.487Z,13.80
2022-10-04T08:03:52.210Z,15.10
2022-10-04T08:07:00.747Z,14.20
2022-10-04T08:09:55.441Z,14.40
2022-10-04T08:12:39.082Z,17.30
2022-10-04T08:15:40.199Z,15.00
2022-10-04T08:18:29.629Z,16.60
2022-10-04T08:21:15.374Z,13.70
2022-10-04T08:24:06.915Z,14.50
2022-10-04T08:27:03.479Z,14.60
2022-10-04T08:30:26.569Z,15.40
2022-10-04T08:33:12.487Z,12.40
2022-10-04T08:35:59.843Z,13.70
2022-10-04T08:38:43.213Z,17.80
2022-10-04T08:41:24.534Z,12.10
2022-10-04T08:44:41.817Z,13.20
2022-10-04T08:47:25.730Z,11.90
2022-10-04T08:50:20.746Z,11.60
2022-10-04T08:53:11.264Z,15.20
2022-10-04T08:56:17.950Z,13.20
2022-10-04T08:59:14.980Z,12.70
2022-10-04T09:01:58.410Z,13.60
2022-10-04T09:05:00.808Z,15.00
2022-10-04T09:08:18.861Z,19.70
2022-10-04T09:11:27.227Z,17.70
2022-10-04T09:14:17.558Z,15.80
2022-10-04T09:16:48.812Z,14.40
2022-10-04T09:19:26.034Z,17.60
2022-10-04T09:21:57.638Z,11.80
2022-10-04T09:24:34.856Z,17.70
2022-10-04T09:27:26.839Z,19.10
2022-10-04T09:30:21.655Z,21.80
2022-10-04T09:33:15.595Z,17.50
2022-10-04T09:36:06.659Z,16.50
2022-10-04T09:39:06.141Z,12.40
2022-10-04T09:42:04.214Z,18.20
2022-10-04T09:45:06.232Z,12.40
2022-10-04T09:47:41.642Z,13.30
2022-10-04T09:50:48.306Z,13.80
2022-10-04T09:53:28.696Z,10.90
2022-10-04T09:56:27.143Z,13.30
2022-10-04T09:59:08.843Z,16.10
2022-10-04T10:01:46.087Z,13.00
2022-10-04T10:04:23.449Z,15.10
2022-10-04T10:06:51.733Z,20.90
2022-10-04T10:10:13.552Z,20.40
2022-10-04T10:13:38.335Z,13.30
2022-10-04T10:16:21.499Z,16.20
2022-10-04T10:19:23.955Z,11.40
2022-10-04T10:24:45.341Z,14.90
2022-10-04T10:27:39.574Z,10.50
2022-10-04T10:30:25.128Z,9.00
2022-10-04T10:32:56.113Z,12.40
2022-10-04T10:35:25.135Z,14.50
2022-10-04T10:38:04.272Z,15.70
2022-10-04T10:40:53.646Z,13.90
2022-10-04T10:43:42.956Z,10.10
2022-10-04T10:46:31.627Z,14.40
2022-10-04T10:49:22.128Z,11.50
2022-10-04T10:52:25.893Z,12.40
2022-10-04T10:55:31.653Z,15.40
2022-10-04T10:57:59.881Z,12.90
2022-10-04T11:00:50.504Z,14.80
2022-10-04T11:03:32.252Z,8.20
2022-10-04T11:06:39.694Z,12.10
2022-10-04T11:09:28.979Z,11.40
2022-10-04T11:12:18.922Z,11.90
2022-10-04T11:15:13.642Z,10.50
2022-10-04T11:17:57.386Z,11.70
2022-10-04T11:20:54.571Z,11.40
2022-10-04T11:23:55.197Z,13.00
2022-10-04T11:26:48.199Z,10.70
2022-10-04T11:29:16.682Z,12.80
2022-10-04T11:32:00.003Z,11.90
2022-10-04T11:34:47.256Z,11.70
2022-10-04T11:37:36.242Z,10.40
2022-10-04T11:40:18.051Z,12.70
2022-10-04T11:43:01.542Z,10.70
2022-10-04T11:45:44.978Z,10.50
2022-10-04T11:48:22.914Z,14.50
2022-10-04T11:50:56.877Z,6.40
2022-10-04T11:53:44.096Z,8.00
2022-10-04T11:56:19.835Z,9.10
2022-10-04T11:59:06.351Z,9.90
2022-10-04T12:02:00.134Z,11.50
2022-10-04T12:04:57.493Z,11.00
2022-10-04T12:07:37.936Z,7.60
2022-10-04T12:10:29.953Z,5.30
2022-10-04T12:13:38.178Z,9.20
2022-10-04T12:16:30.115Z,5.60
2022-10-04T12:19:40.719Z,6.30
2022-10-04T12:22:08.900Z,9.00
2022-10-04T12:25:22.334Z,9.10
2022-10-04T12:28:12.608Z,9.90
2022-10-04T12:30:54.159Z,7.90
2022-10-04T12:33:43.070Z,8.00
2022-10-04T12:36:31.475Z,6.60
2022-10-04T12:39:14.949Z,9.40
2022-10-04T12:42:07.947Z,4.20
2022-10-04T12:44:57.870Z,7.90
2022-10-04T12:47:45.262Z,9.30
2022-10-04T12:50:43.752Z,5.60
2022-10-04T12:53:16.763Z,6.30
2022-10-04T12:56:03.482Z,5.50
2022-10-04T12:58:37.755Z,7.20
2022-10-04T13:01:47.742Z,4.50
2022-10-04T13:04:30.230Z,5.10
2022-10-04T13:07:27.592Z,5.10
2022-10-04T13:10:24.506Z,8.30
2022-10-04T13:13:38.802Z,7.80
2022-10-04T13:21:51.219Z,9.20
2022-10-04T13:24:52.886Z,5.30
2022-10-04T13:27:33.848Z,9.00
2022-10-04T13:30:17.014Z,6.20
2022-10-04T13:32:55.305Z,8.30
2022-10-04T13:35:41.393Z,6.70
2022-10-04T13:38:35.985Z,13.50
2022-10-04T13:41:13.151Z,4.60
2022-10-04T13:43:58.327Z,5.40
2022-10-04T13:49:42.746Z,4.90
2022-10-04T13:52:55.742Z,5.80
2022-10-04T13:55:54.547Z,6.10
2022-10-04T13:58:22.785Z,9.70
2022-10-04T14:01:22.462Z,15.20
2022-10-04T14:03:56.735Z,7.40
2022-10-04T14:06:24.954Z,10.70
2022-10-04T14:08:54.007Z,9.20
2022-10-04T14:12:04.026Z,8.80
2022-10-04T14:14:44.030Z,8.40
2022-10-04T14:17:34.216Z,9.90
2022-10-04T14:20:24.903Z,6.10
2022-10-04T14:23:20.332Z,5.10
2022-10-04T14:26:00.451Z,7.00
2022-10-04T14:28:53.725Z,8.40
2022-10-04T14:32:20.661Z,12.10
2022-10-04T14:35:14.600Z,5.60
2022-10-04T14:38:01.965Z,8.50
2022-10-04T14:40:45.287Z,8.70
2022-10-04T14:43:41.124Z,8.80
2022-10-04T14:46:43.398Z,5.10
2022-10-04T14:49:31.140Z,6.80
2022-10-04T14:52:36.349Z,10.70
2022-10-04T14:55:33.637Z,6.80
2022-10-04T14:58:12.282Z,6.80
2022-10-04T15:01:06.491Z,10.20
2022-10-04T15:03:52.866Z,7.20
2022-10-04T15:06:24.012Z,5.80
2022-10-04T15:09:11.957Z,4.50
2022-10-04T15:12:21.603Z,5.30
2022-10-04T15:15:03.360Z,8.10
2022-10-04T15:17:37.919Z,6.00
2022-10-04T15:20:44.381Z,10.00
2022-10-04T15:23:12.732Z,8.50
2022-10-04T15:25:43.255Z,12.00
2022-10-04T15:28:17.608Z,13.00
2022-10-04T15:31:11.084Z,5.10
2022-10-04T15:33:55.929Z,10.00
2022-10-04T15:36:46.162Z,7.60
2022-10-04T15:39:33.578Z,8.00
2022-10-04T15:42:16.328Z,7.60
2022-10-04T15:45:00.375Z,10.80
2022-10-04T15:47:57.601Z,9.00
2022-10-04T15:50:58.164Z,12.10
2022-10-04T15:53:26.381Z,13.30
2022-10-04T15:56:13.898Z,11.10
2022-10-04T15:59:20.617Z,8.60
2022-10-04T16:02:00.447Z,9.90
2022-10-04T16:04:34.478Z,13.90
2022-10-04T16:07:32.394Z,10.30
2022-10-04T16:10:13.437Z,9.40
2022-10-04T16:12:48.549Z,8.90
2022-10-04T16:18:31.017Z,11.40
2022-10-04T16:21:12.958Z,12.80
2022-10-04T16:23:44.466Z,12.70
2022-10-04T16:26:33.992Z,16.30
2022-10-04T16:29:11.930Z,20.00
2022-10-04T16:32:11.476Z,36.70
2022-10-04T16:34:43.289Z,40.80
2022-10-04T16:37:14.293Z,38.90
2022-10-04T16:40:00.954Z,71.90
2022-10-04T16:42:44.768Z,45.80
2022-10-04T16:45:43.621Z,30.90
2022-10-04T16:48:20.957Z,25.40
2022-10-04T16:51:04.422Z,31.30
2022-10-04T16:54:10.243Z,38.40
2022-10-04T16:57:01.036Z,39.20
2022-10-04T16:59:38.836Z,53.10
2022-10-04T17:02:46.340Z,50.60
2022-10-04T17:05:22.853Z,54.40
2022-10-04T17:07:56.889Z,70.60
2022-10-04T17:10:45.091Z,76.40
2022-10-04T17:13:23.593Z,59.30
2022-10-04T17:16:00.949Z,66.60
2022-10-04T17:19:07.514Z,68.50
2022-10-04T17:22:07.068Z,78.30
2022-10-04T17:25:01.404Z,68.60
2022-10-04T17:27:58.057Z,76.10
2022-10-04T17:30:43.182Z,67.00
2022-10-04T17:33:30.664Z,61.20
2022-10-04T17:36:07.715Z,68.90
2022-10-04T17:38:36.342Z,62.80
2022-10-04T17:41:42.452Z,60.80
2022-10-04T17:47:14.290Z,49.10
2022-10-04T17:50:14.530Z,48.70
2022-10-04T17:53:07.728Z,50.00
2022-10-04T17:55:57.358Z,56.00
2022-10-04T17:58:54.135Z,52.70
2022-10-04T18:01:47.055Z,47.70
2022-10-04T18:04:24.017Z,45.50
2022-10-04T18:07:04.410Z,47.10
2022-10-04T18:09:41.498Z,49.30
2022-10-04T18:12:30.467Z,52.40
2022-10-04T18:15:22.257Z,57.70
2022-10-04T18:17:51.394Z,61.40
2022-10-04T18:20:34.193Z,48.00
2022-10-04T18:23:39.698Z,55.50
2022-10-04T18:26:18.635Z,61.40
2022-10-04T18:28:49.318Z,49.10
2022-10-04T18:31:39.404Z,45.50
2022-10-04T18:34:18.363Z,40.60
2022-10-04T18:37:06.478Z,34.00
2022-10-04T18:39:48.750Z,29.90
2022-10-04T18:45:19.987Z,29.90
2022-10-04T18:47:52.380Z,29.50
2022-10-04T18:50:20.575Z,33.10
2022-10-04T18:53:13.811Z,29.90
2022-10-04T18:56:07.418Z,29.00
2022-10-04T18:59:12.710Z,28.90
2022-10-04T19:02:08.068Z,31.10
2022-10-04T19:04:48.791Z,26.60
2022-10-04T19:07:25.293Z,27.40
2022-10-04T19:10:03.294Z,28.00
2022-10-04T19:12:50.613Z,33.90
2022-10-04T19:15:18.742Z,29.00
2022-10-04T19:18:24.860Z,29.20
2022-10-04T19:21:37.492Z,31.30
2022-10-04T19:24:30.281Z,32.20
2022-10-04T19:27:05.258Z,46.00
2022-10-04T19:34:54.167Z,61.90
2022-10-04T19:37:35.583Z,52.40
2022-10-04T19:40:25.715Z,53.20
2022-10-04T19:43:12.478Z,53.00
2022-10-04T19:46:18.628Z,42.20
2022-10-04T19:48:52.776Z,39.00
2022-10-04T19:51:30.433Z,31.80
2022-10-04T19:54:14.667Z,31.90
2022-10-04T19:56:48.918Z,34.50
2022-10-04T19:59:40.759Z,30.10
2022-10-04T20:02:14.487Z,33.00
2022-10-04T20:04:48.982Z,29.40
2022-10-04T20:07:27.695Z,30.80
2022-10-04T20:10:30.709Z,33.40
2022-10-04T20:13:26.388Z,29.90
2022-10-04T20:15:59.992Z,27.80
2022-10-04T20:18:38.398Z,29.10
2022-10-04T20:21:10.904Z,27.60
2022-10-04T20:23:39.427Z,24.90
2022-10-04T20:26:54.180Z,29.40
2022-10-04T20:29:43.867Z,28.70
2022-10-04T20:32:31.571Z,25.80
2022-10-04T20:35:02.060Z,33.30
2022-10-04T20:37:45.648Z,36.10
2022-10-04T20:40:26.784Z,33.60
2022-10-04T20:43:13.588Z,31.60
2022-10-04T20:45:48.515Z,32.60
2022-10-04T20:48:31.428Z,27.30
2022-10-04T20:51:09.953Z,25.40
2022-10-04T20:53:46.982Z,27.50
2022-10-04T20:56:37.488Z,30.10
2022-10-04T20:59:05.996Z,26.70
2022-10-04T21:01:38.594Z,25.30
2022-10-04T21:04:37.063Z,27.10
2022-10-04T21:07:07.611Z,26.60
2022-10-04T21:09:41.730Z,23.30
2022-10-04T21:12:30.402Z,24.70
2022-10-04T21:15:19.290Z,24.10
2022-10-04T21:18:10.917Z,28.60
2022-10-04T21:20:48.077Z,28.20
2022-10-04T21:23:34.231Z,25.10
2022-10-04T21:26:22.482Z,27.40
2022-10-04T21:28:57.332Z,22.40
2022-10-04T21:31:25.840Z,22.10
2022-10-04T21:33:54.137Z,25.90
2022-10-04T21:36:22.354Z,20.30
2022-10-04T21:38:51.045Z,22.50
2022-10-04T21:41:19.365Z,23.90
2022-10-04T21:43:47.592Z,22.10
2022-10-04T21:46:20.206Z,27.20
2022-10-04T21:48:49.095Z,22.90
2022-10-04T21:51:17.493Z,21.70
2022-10-04T21:53:45.733Z,24.70
2022-10-04T21:56:14.118Z,23.00
2022-10-04T21:58:42.334Z,21.40
2022-10-04T22:01:10.565Z,22.80
2022-10-04T22:03:38.896Z,20.80
2022-10-04T22:06:07.055Z,24.50
2022-10-04T22:08:35.297Z,25.80
2022-10-04T22:11:03.541Z,22.80
2022-10-04T22:13:31.962Z,25.80
2022-10-04T22:16:00.258Z,25.70
2022-10-04T22:18:29.610Z,27.90
2022-10-04T22:20:58.418Z,29.50
2022-10-04T22:23:33.821Z,20.70
2022-10-04T22:26:03.127Z,22.90
2022-10-04T22:28:33.849Z,20.80
2022-10-04T22:31:02.239Z,21.10
2022-10-04T22:33:39.455Z,23.90
2022-10-04T22:36:13.896Z,21.10
2022-10-04T22:38:45.997Z,19.80
2022-10-04T22:41:18.901Z,26.90
2022-10-04T22:43:49.253Z,19.60
2022-10-04T22:46:20.347Z,22.50
2022-10-04T22:48:49.606Z,19.90
2022-10-04T22:51:17.883Z,24.50
2022-10-04T22:53:48.188Z,26.60
2022-10-04T22:56:16.796Z,24.20
2022-10-04T22:58:45.253Z,18.20
2022-10-04T23:01:16.818Z,22.70
2022-10-04T23:03:47.631Z,23.80
2022-10-04T23:06:16.681Z,20.80
2022-10-04T23:08:45.049Z,20.50
2022-10-04T23:11:13.414Z,19.20
2022-10-04T23:13:41.705Z,22.50
2022-10-04T23:16:23.614Z,19.20
2022-10-04T23:19:00.754Z,19.10
2022-10-04T23:21:33.829Z,21.50
2022-10-04T23:24:17.892Z,17.60
2022-10-04T23:26:49.640Z,18.40
2022-10-04T23:29:23.441Z,20.70
2022-10-04T23:31:52.931Z,22.30
2022-10-04T23:34:33.622Z,16.50
2022-10-04T23:37:03.422Z,18.20
2022-10-04T23:39:35.033Z,13.90
2022-10-04T23:42:13.701Z,26.00
2022-10-04T23:44:42.381Z,17.20
2022-10-04T23:47:16.206Z,14.90
2022-10-04T23:49:49.774Z,19.40
2022-10-04T23:52:37.450Z,18.50
2022-10-04T23:55:36.332Z,18.80
2022-10-04T23:58:17.181Z,20.20
